sensor_id;sensor_type;location;lat;lon;timestamp;P1;durP1;ratioP1;P2;durP2;ratioP2
35917;SDS011;22011;59.912;30.300;2023-06-10T00:00:12;2.20;;;1.08;;
35917;SDS011;22011;59.912;30.300;2023-06-10T00:02:42;4.93;;;1.30;;
35917;SDS011;22011;59.912;30.300;2023-06-10T00:05:10;1.55;;;1.17;;
35917;SDS011;22011;59.912;30.300;2023-06-10T00:07:37;2.42;;;1.10;;
35917;SDS011;22011;59.912;30.300;2023-06-10T00:10:05;1.17;;;1.00;;
35917;SDS011;22011;59.912;30.300;2023-06-10T00:12:33;1.30;;;0.93;;
35917;SDS011;22011;59.912;30.300;2023-06-10T00:15:03;2.10;;;1.13;;
35917;SDS011;22011;59.912;30.300;2023-06-10T00:17:32;1.60;;;1.08;;
35917;SDS011;22011;59.912;30.300;2023-06-10T00:19:59;2.15;;;1.02;;
35917;SDS011;22011;59.912;30.300;2023-06-10T00:22:30;1.77;;;1.27;;
35917;SDS011;22011;59.912;30.300;2023-06-10T00:24:58;3.85;;;1.42;;
35917;SDS011;22011;59.912;30.300;2023-06-10T00:27:25;2.78;;;1.10;;
35917;SDS011;22011;59.912;30.300;2023-06-10T00:29:57;2.25;;;0.90;;
35917;SDS011;22011;59.912;30.300;2023-06-10T00:32:24;1.70;;;1.05;;
35917;SDS011;22011;59.912;30.300;2023-06-10T00:34:53;4.45;;;0.93;;
35917;SDS011;22011;59.912;30.300;2023-06-10T00:37:21;1.70;;;1.10;;
35917;SDS011;22011;59.912;30.300;2023-06-10T00:39:48;2.67;;;1.05;;
35917;SDS011;22011;59.912;30.300;2023-06-10T00:42:16;2.97;;;1.05;;
35917;SDS011;22011;59.912;30.300;2023-06-10T00:44:44;1.42;;;1.10;;
35917;SDS011;22011;59.912;30.300;2023-06-10T00:47:11;1.88;;;1.02;;
35917;SDS011;22011;59.912;30.300;2023-06-10T00:49:39;8.20;;;1.05;;
35917;SDS011;22011;59.912;30.300;2023-06-10T00:52:08;2.88;;;1.65;;
35917;SDS011;22011;59.912;30.300;2023-06-10T00:54:37;7.53;;;1.17;;
35917;SDS011;22011;59.912;30.300;2023-06-10T00:57:05;1.48;;;1.10;;
35917;SDS011;22011;59.912;30.300;2023-06-10T00:59:34;1.75;;;0.90;;
35917;SDS011;22011;59.912;30.300;2023-06-10T01:02:03;6.03;;;0.80;;
35917;SDS011;22011;59.912;30.300;2023-06-10T01:04:31;2.13;;;0.95;;
35917;SDS011;22011;59.912;30.300;2023-06-10T01:07:00;1.85;;;1.00;;
35917;SDS011;22011;59.912;30.300;2023-06-10T01:09:42;1.65;;;1.02;;
35917;SDS011;22011;59.912;30.300;2023-06-10T01:12:16;1.15;;;0.90;;
35917;SDS011;22011;59.912;30.300;2023-06-10T01:14:48;2.65;;;0.95;;
35917;SDS011;22011;59.912;30.300;2023-06-10T01:17:16;3.05;;;1.10;;
35917;SDS011;22011;59.912;30.300;2023-06-10T01:19:48;1.85;;;1.00;;
35917;SDS011;22011;59.912;30.300;2023-06-10T01:22:24;2.13;;;0.95;;
35917;SDS011;22011;59.912;30.300;2023-06-10T01:24:54;5.53;;;1.10;;
35917;SDS011;22011;59.912;30.300;2023-06-10T01:27:25;2.42;;;1.17;;
35917;SDS011;22011;59.912;30.300;2023-06-10T01:29:58;4.18;;;1.23;;
35917;SDS011;22011;59.912;30.300;2023-06-10T01:32:32;1.42;;;0.98;;
35917;SDS011;22011;59.912;30.300;2023-06-10T01:35:04;3.47;;;1.20;;
35917;SDS011;22011;59.912;30.300;2023-06-10T01:37:38;3.15;;;1.20;;
35917;SDS011;22011;59.912;30.300;2023-06-10T01:40:07;1.88;;;1.13;;
35917;SDS011;22011;59.912;30.300;2023-06-10T01:42:35;4.43;;;1.50;;
35917;SDS011;22011;59.912;30.300;2023-06-10T01:45:04;1.98;;;1.30;;
35917;SDS011;22011;59.912;30.300;2023-06-10T01:47:32;3.13;;;1.25;;
35917;SDS011;22011;59.912;30.300;2023-06-10T01:50:00;4.90;;;1.15;;
35917;SDS011;22011;59.912;30.300;2023-06-10T01:52:27;1.67;;;1.10;;
35917;SDS011;22011;59.912;30.300;2023-06-10T01:54:56;3.83;;;1.38;;
35917;SDS011;22011;59.912;30.300;2023-06-10T01:57:24;4.60;;;1.33;;
35917;SDS011;22011;59.912;30.300;2023-06-10T01:59:52;1.55;;;1.10;;
35917;SDS011;22011;59.912;30.300;2023-06-10T02:02:20;1.42;;;1.20;;
35917;SDS011;22011;59.912;30.300;2023-06-10T02:04:48;2.80;;;1.15;;
35917;SDS011;22011;59.912;30.300;2023-06-10T02:07:16;2.63;;;1.48;;
35917;SDS011;22011;59.912;30.300;2023-06-10T02:09:44;1.77;;;1.25;;
35917;SDS011;22011;59.912;30.300;2023-06-10T02:12:13;2.53;;;1.42;;
35917;SDS011;22011;59.912;30.300;2023-06-10T02:14:40;2.10;;;1.17;;
35917;SDS011;22011;59.912;30.300;2023-06-10T02:17:08;2.88;;;1.27;;
35917;SDS011;22011;59.912;30.300;2023-06-10T02:19:38;4.68;;;1.58;;
35917;SDS011;22011;59.912;30.300;2023-06-10T02:22:09;5.82;;;1.15;;
35917;SDS011;22011;59.912;30.300;2023-06-10T02:24:37;2.20;;;1.30;;
35917;SDS011;22011;59.912;30.300;2023-06-10T02:27:04;1.75;;;1.20;;
35917;SDS011;22011;59.912;30.300;2023-06-10T02:29:35;2.28;;;1.40;;
35917;SDS011;22011;59.912;30.300;2023-06-10T02:32:03;2.78;;;1.33;;
35917;SDS011;22011;59.912;30.300;2023-06-10T02:34:31;1.90;;;1.38;;
35917;SDS011;22011;59.912;30.300;2023-06-10T02:37:00;1.73;;;1.30;;
35917;SDS011;22011;59.912;30.300;2023-06-10T02:39:29;2.13;;;1.17;;
35917;SDS011;22011;59.912;30.300;2023-06-10T02:41:57;3.30;;;1.50;;
35917;SDS011;22011;59.912;30.300;2023-06-10T02:44:24;1.48;;;1.10;;
35917;SDS011;22011;59.912;30.300;2023-06-10T02:46:53;2.88;;;1.50;;
35917;SDS011;22011;59.912;30.300;2023-06-10T02:49:21;2.55;;;1.10;;
35917;SDS011;22011;59.912;30.300;2023-06-10T02:51:49;2.50;;;1.30;;
35917;SDS011;22011;59.912;30.300;2023-06-10T02:54:20;3.90;;;1.67;;
35917;SDS011;22011;59.912;30.300;2023-06-10T02:56:48;3.83;;;1.33;;
35917;SDS011;22011;59.912;30.300;2023-06-10T02:59:20;1.77;;;1.42;;
35917;SDS011;22011;59.912;30.300;2023-06-10T03:01:48;2.33;;;1.40;;
35917;SDS011;22011;59.912;30.300;2023-06-10T03:04:17;2.92;;;1.20;;
35917;SDS011;22011;59.912;30.300;2023-06-10T03:06:53;1.73;;;1.50;;
35917;SDS011;22011;59.912;30.300;2023-06-10T03:09:26;1.95;;;1.67;;
35917;SDS011;22011;59.912;30.300;2023-06-10T03:11:57;4.57;;;1.60;;
35917;SDS011;22011;59.912;30.300;2023-06-10T03:14:25;1.90;;;1.42;;
35917;SDS011;22011;59.912;30.300;2023-06-10T03:16:53;3.50;;;1.60;;
35917;SDS011;22011;59.912;30.300;2023-06-10T03:19:24;2.78;;;1.20;;
35917;SDS011;22011;59.912;30.300;2023-06-10T03:22:08;1.60;;;1.17;;
35917;SDS011;22011;59.912;30.300;2023-06-10T03:24:40;3.38;;;1.80;;
35917;SDS011;22011;59.912;30.300;2023-06-10T03:29:39;1.88;;;1.35;;
35917;SDS011;22011;59.912;30.300;2023-06-10T03:32:07;2.53;;;1.30;;
35917;SDS011;22011;59.912;30.300;2023-06-10T03:34:40;2.65;;;1.50;;
35917;SDS011;22011;59.912;30.300;2023-06-10T03:37:09;2.40;;;1.20;;
35917;SDS011;22011;59.912;30.300;2023-06-10T03:39:36;1.60;;;1.10;;
35917;SDS011;22011;59.912;30.300;2023-06-10T03:42:05;3.13;;;1.55;;
35917;SDS011;22011;59.912;30.300;2023-06-10T03:44:33;1.77;;;1.20;;
35917;SDS011;22011;59.912;30.300;2023-06-10T03:47:00;1.35;;;1.00;;
35917;SDS011;22011;59.912;30.300;2023-06-10T03:49:29;1.23;;;1.00;;
35917;SDS011;22011;59.912;30.300;2023-06-10T03:52:02;1.40;;;1.10;;
35917;SDS011;22011;59.912;30.300;2023-06-10T03:54:30;1.60;;;1.15;;
35917;SDS011;22011;59.912;30.300;2023-06-10T03:57:00;4.03;;;1.15;;
35917;SDS011;22011;59.912;30.300;2023-06-10T03:59:30;2.15;;;1.20;;
35917;SDS011;22011;59.912;30.300;2023-06-10T04:01:57;2.85;;;1.10;;
35917;SDS011;22011;59.912;30.300;2023-06-10T04:04:26;1.20;;;0.95;;
35917;SDS011;22011;59.912;30.300;2023-06-10T04:06:54;1.95;;;0.70;;
35917;SDS011;22011;59.912;30.300;2023-06-10T04:09:23;1.65;;;0.90;;
35917;SDS011;22011;59.912;30.300;2023-06-10T04:11:51;3.20;;;1.00;;
35917;SDS011;22011;59.912;30.300;2023-06-10T04:14:19;1.00;;;0.77;;
35917;SDS011;22011;59.912;30.300;2023-06-10T04:16:47;2.33;;;0.90;;
35917;SDS011;22011;59.912;30.300;2023-06-10T04:19:17;1.02;;;0.77;;
35917;SDS011;22011;59.912;30.300;2023-06-10T04:21:44;2.17;;;0.85;;
35917;SDS011;22011;59.912;30.300;2023-06-10T04:24:12;0.82;;;0.80;;
35917;SDS011;22011;59.912;30.300;2023-06-10T04:26:41;2.05;;;0.88;;
35917;SDS011;22011;59.912;30.300;2023-06-10T04:29:09;1.17;;;1.00;;
35917;SDS011;22011;59.912;30.300;2023-06-10T04:31:36;1.10;;;0.70;;
35917;SDS011;22011;59.912;30.300;2023-06-10T04:34:04;1.30;;;0.93;;
35917;SDS011;22011;59.912;30.300;2023-06-10T04:36:33;1.33;;;0.90;;
35917;SDS011;22011;59.912;30.300;2023-06-10T04:39:00;1.08;;;0.75;;
35917;SDS011;22011;59.912;30.300;2023-06-10T04:41:29;1.15;;;0.93;;
35917;SDS011;22011;59.912;30.300;2023-06-10T04:43:58;0.93;;;0.90;;
35917;SDS011;22011;59.912;30.300;2023-06-10T04:46:26;1.17;;;0.70;;
35917;SDS011;22011;59.912;30.300;2023-06-10T04:51:24;0.88;;;0.70;;
35917;SDS011;22011;59.912;30.300;2023-06-10T04:53:52;1.35;;;0.93;;
35917;SDS011;22011;59.912;30.300;2023-06-10T04:56:19;0.68;;;0.60;;
35917;SDS011;22011;59.912;30.300;2023-06-10T04:58:47;2.08;;;0.60;;
35917;SDS011;22011;59.912;30.300;2023-06-10T05:01:16;1.00;;;0.90;;
35917;SDS011;22011;59.912;30.300;2023-06-10T05:03:43;7.63;;;0.85;;
35917;SDS011;22011;59.912;30.300;2023-06-10T05:06:11;1.23;;;0.50;;
35917;SDS011;22011;59.912;30.300;2023-06-10T05:08:38;2.67;;;0.70;;
35917;SDS011;22011;59.912;30.300;2023-06-10T05:11:06;0.55;;;0.50;;
35917;SDS011;22011;59.912;30.300;2023-06-10T05:13:34;5.75;;;0.70;;
35917;SDS011;22011;59.912;30.300;2023-06-10T05:16:02;0.90;;;0.47;;
35917;SDS011;22011;59.912;30.300;2023-06-10T05:18:31;0.85;;;0.50;;
35917;SDS011;22011;59.912;30.300;2023-06-10T05:20:58;1.63;;;0.43;;
35917;SDS011;22011;59.912;30.300;2023-06-10T05:23:26;2.70;;;1.00;;
35917;SDS011;22011;59.912;30.300;2023-06-10T05:25:53;0.98;;;0.63;;
35917;SDS011;22011;59.912;30.300;2023-06-10T05:28:21;1.08;;;0.80;;
35917;SDS011;22011;59.912;30.300;2023-06-10T05:30:48;3.17;;;0.80;;
35917;SDS011;22011;59.912;30.300;2023-06-10T05:33:16;1.55;;;0.80;;
35917;SDS011;22011;59.912;30.300;2023-06-10T05:35:45;1.65;;;0.57;;
35917;SDS011;22011;59.912;30.300;2023-06-10T05:38:12;0.52;;;0.50;;
35917;SDS011;22011;59.912;30.300;2023-06-10T05:40:40;0.90;;;0.70;;
35917;SDS011;22011;59.912;30.300;2023-06-10T05:43:07;0.60;;;0.60;;
35917;SDS011;22011;59.912;30.300;2023-06-10T05:45:35;0.70;;;0.60;;
35917;SDS011;22011;59.912;30.300;2023-06-10T05:48:03;0.85;;;0.63;;
35917;SDS011;22011;59.912;30.300;2023-06-10T05:50:31;0.85;;;0.50;;
35917;SDS011;22011;59.912;30.300;2023-06-10T05:53:05;1.15;;;0.73;;
35917;SDS011;22011;59.912;30.300;2023-06-10T05:58:01;0.88;;;0.80;;
35917;SDS011;22011;59.912;30.300;2023-06-10T06:00:29;0.75;;;0.63;;
35917;SDS011;22011;59.912;30.300;2023-06-10T06:02:56;1.05;;;0.60;;
35917;SDS011;22011;59.912;30.300;2023-06-10T06:05:24;2.35;;;0.80;;
35917;SDS011;22011;59.912;30.300;2023-06-10T06:07:52;0.70;;;0.70;;
35917;SDS011;22011;59.912;30.300;2023-06-10T06:10:21;1.05;;;0.70;;
35917;SDS011;22011;59.912;30.300;2023-06-10T06:12:48;1.05;;;0.80;;
35917;SDS011;22011;59.912;30.300;2023-06-10T06:15:16;0.80;;;0.68;;
35917;SDS011;22011;59.912;30.300;2023-06-10T06:17:43;1.08;;;0.63;;
35917;SDS011;22011;59.912;30.300;2023-06-10T06:20:11;1.30;;;0.70;;
35917;SDS011;22011;59.912;30.300;2023-06-10T06:22:39;1.08;;;0.70;;
35917;SDS011;22011;59.912;30.300;2023-06-10T06:25:06;1.98;;;0.68;;
35917;SDS011;22011;59.912;30.300;2023-06-10T06:27:35;0.77;;;0.57;;
35917;SDS011;22011;59.912;30.300;2023-06-10T06:30:03;1.42;;;0.65;;
35917;SDS011;22011;59.912;30.300;2023-06-10T06:32:32;0.77;;;0.75;;
35917;SDS011;22011;59.912;30.300;2023-06-10T06:35:02;0.60;;;0.60;;
35917;SDS011;22011;59.912;30.300;2023-06-10T06:37:33;1.80;;;0.60;;
35917;SDS011;22011;59.912;30.300;2023-06-10T06:40:14;0.80;;;0.70;;
35917;SDS011;22011;59.912;30.300;2023-06-10T06:42:43;3.88;;;0.63;;
35917;SDS011;22011;59.912;30.300;2023-06-10T06:45:17;2.70;;;0.70;;
35917;SDS011;22011;59.912;30.300;2023-06-10T06:47:44;2.50;;;0.98;;
35917;SDS011;22011;59.912;30.300;2023-06-10T06:50:12;0.80;;;0.77;;
35917;SDS011;22011;59.912;30.300;2023-06-10T06:52:40;0.75;;;0.60;;
35917;SDS011;22011;59.912;30.300;2023-06-10T06:55:07;2.00;;;0.60;;
35917;SDS011;22011;59.912;30.300;2023-06-10T06:57:35;0.80;;;0.70;;
35917;SDS011;22011;59.912;30.300;2023-06-10T07:00:05;3.53;;;0.75;;
35917;SDS011;22011;59.912;30.300;2023-06-10T07:02:34;1.05;;;0.68;;
35917;SDS011;22011;59.912;30.300;2023-06-10T07:05:02;0.60;;;0.60;;
35917;SDS011;22011;59.912;30.300;2023-06-10T07:07:31;1.20;;;0.85;;
35917;SDS011;22011;59.912;30.300;2023-06-10T07:09:58;2.03;;;0.70;;
35917;SDS011;22011;59.912;30.300;2023-06-10T07:12:26;0.70;;;0.70;;
35917;SDS011;22011;59.912;30.300;2023-06-10T07:14:53;0.75;;;0.70;;
35917;SDS011;22011;59.912;30.300;2023-06-10T07:17:22;0.80;;;0.60;;
35917;SDS011;22011;59.912;30.300;2023-06-10T07:19:50;2.13;;;1.20;;
35917;SDS011;22011;59.912;30.300;2023-06-10T07:22:18;1.63;;;0.70;;
35917;SDS011;22011;59.912;30.300;2023-06-10T07:24:45;1.27;;;0.73;;
35917;SDS011;22011;59.912;30.300;2023-06-10T07:27:13;1.85;;;1.10;;
35917;SDS011;22011;59.912;30.300;2023-06-10T07:29:40;2.13;;;1.27;;
35917;SDS011;22011;59.912;30.300;2023-06-10T07:32:08;0.60;;;0.60;;
35917;SDS011;22011;59.912;30.300;2023-06-10T07:34:37;0.70;;;0.70;;
35917;SDS011;22011;59.912;30.300;2023-06-10T07:37:04;2.70;;;0.88;;
35917;SDS011;22011;59.912;30.300;2023-06-10T07:39:32;6.00;;;0.60;;
35917;SDS011;22011;59.912;30.300;2023-06-10T07:42:00;0.82;;;0.80;;
35917;SDS011;22011;59.912;30.300;2023-06-10T07:44:28;0.88;;;0.75;;
35917;SDS011;22011;59.912;30.300;2023-06-10T07:46:55;1.33;;;0.80;;
35917;SDS011;22011;59.912;30.300;2023-06-10T07:49:24;2.05;;;0.82;;
35917;SDS011;22011;59.912;30.300;2023-06-10T07:51:53;0.98;;;0.68;;
35917;SDS011;22011;59.912;30.300;2023-06-10T07:54:21;1.00;;;0.60;;
35917;SDS011;22011;59.912;30.300;2023-06-10T07:56:49;1.80;;;0.77;;
35917;SDS011;22011;59.912;30.300;2023-06-10T07:59:18;0.40;;;0.40;;
35917;SDS011;22011;59.912;30.300;2023-06-10T08:01:45;1.25;;;0.85;;
35917;SDS011;22011;59.912;30.300;2023-06-10T08:04:13;2.25;;;0.90;;
35917;SDS011;22011;59.912;30.300;2023-06-10T08:06:40;1.15;;;0.98;;
35917;SDS011;22011;59.912;30.300;2023-06-10T08:09:09;0.80;;;0.80;;
35917;SDS011;22011;59.912;30.300;2023-06-10T08:11:36;1.05;;;0.95;;
35917;SDS011;22011;59.912;30.300;2023-06-10T08:14:04;0.77;;;0.60;;
35917;SDS011;22011;59.912;30.300;2023-06-10T08:16:31;0.60;;;0.60;;
35917;SDS011;22011;59.912;30.300;2023-06-10T08:18:59;1.35;;;1.00;;
35917;SDS011;22011;59.912;30.300;2023-06-10T08:21:26;0.68;;;0.68;;
35917;SDS011;22011;59.912;30.300;2023-06-10T08:23:54;6.50;;;0.80;;
35917;SDS011;22011;59.912;30.300;2023-06-10T08:26:23;2.10;;;0.85;;
35917;SDS011;22011;59.912;30.300;2023-06-10T08:28:51;1.20;;;0.80;;
35917;SDS011;22011;59.912;30.300;2023-06-10T08:31:20;1.15;;;0.65;;
35917;SDS011;22011;59.912;30.300;2023-06-10T08:33:47;3.22;;;0.82;;
35917;SDS011;22011;59.912;30.300;2023-06-10T08:36:15;2.03;;;0.85;;
35917;SDS011;22011;59.912;30.300;2023-06-10T08:38:42;1.38;;;1.00;;
35917;SDS011;22011;59.912;30.300;2023-06-10T08:41:10;1.42;;;0.88;;
35917;SDS011;22011;59.912;30.300;2023-06-10T08:43:43;1.38;;;0.80;;
35917;SDS011;22011;59.912;30.300;2023-06-10T08:46:15;1.23;;;0.70;;
35917;SDS011;22011;59.912;30.300;2023-06-10T08:48:43;1.20;;;1.10;;
35917;SDS011;22011;59.912;30.300;2023-06-10T08:51:11;10.05;;;0.93;;
35917;SDS011;22011;59.912;30.300;2023-06-10T08:53:42;2.47;;;0.90;;
35917;SDS011;22011;59.912;30.300;2023-06-10T08:56:17;1.40;;;1.00;;
35917;SDS011;22011;59.912;30.300;2023-06-10T08:58:46;0.95;;;0.85;;
35917;SDS011;22011;59.912;30.300;2023-06-10T09:03:42;1.15;;;0.98;;
35917;SDS011;22011;59.912;30.300;2023-06-10T09:06:10;1.17;;;0.70;;
35917;SDS011;22011;59.912;30.300;2023-06-10T09:08:38;1.02;;;0.80;;
35917;SDS011;22011;59.912;30.300;2023-06-10T09:11:06;0.80;;;0.80;;
35917;SDS011;22011;59.912;30.300;2023-06-10T09:13:34;2.67;;;1.05;;
35917;SDS011;22011;59.912;30.300;2023-06-10T09:16:03;1.73;;;0.82;;
35917;SDS011;22011;59.912;30.300;2023-06-10T09:18:31;0.95;;;0.90;;
35917;SDS011;22011;59.912;30.300;2023-06-10T09:21:00;1.85;;;0.70;;
35917;SDS011;22011;59.912;30.300;2023-06-10T09:23:27;2.67;;;1.00;;
35917;SDS011;22011;59.912;30.300;2023-06-10T09:25:56;0.57;;;0.57;;
35917;SDS011;22011;59.912;30.300;2023-06-10T09:28:24;3.08;;;0.70;;
35917;SDS011;22011;59.912;30.300;2023-06-10T09:31:01;1.35;;;0.90;;
35917;SDS011;22011;59.912;30.300;2023-06-10T09:33:31;0.80;;;0.80;;
35917;SDS011;22011;59.912;30.300;2023-06-10T09:35:59;0.60;;;0.60;;
35917;SDS011;22011;59.912;30.300;2023-06-10T09:40:56;0.82;;;0.65;;
35917;SDS011;22011;59.912;30.300;2023-06-10T09:43:26;3.92;;;0.93;;
35917;SDS011;22011;59.912;30.300;2023-06-10T09:46:08;1.83;;;0.73;;
35917;SDS011;22011;59.912;30.300;2023-06-10T09:48:42;1.42;;;0.70;;
35917;SDS011;22011;59.912;30.300;2023-06-10T09:51:10;0.60;;;0.60;;
35917;SDS011;22011;59.912;30.300;2023-06-10T09:53:38;1.58;;;0.75;;
35917;SDS011;22011;59.912;30.300;2023-06-10T09:56:06;1.40;;;0.93;;
35917;SDS011;22011;59.912;30.300;2023-06-10T09:58:37;0.95;;;0.75;;
35917;SDS011;22011;59.912;30.300;2023-06-10T10:01:10;1.92;;;0.70;;
35917;SDS011;22011;59.912;30.300;2023-06-10T10:03:44;1.48;;;0.68;;
35917;SDS011;22011;59.912;30.300;2023-06-10T10:06:13;1.10;;;0.80;;
35917;SDS011;22011;59.912;30.300;2023-06-10T10:08:42;0.70;;;0.70;;
35917;SDS011;22011;59.912;30.300;2023-06-10T10:11:10;0.98;;;0.60;;
35917;SDS011;22011;59.912;30.300;2023-06-10T10:13:38;0.70;;;0.70;;
35917;SDS011;22011;59.912;30.300;2023-06-10T10:16:09;3.80;;;0.65;;
35917;SDS011;22011;59.912;30.300;2023-06-10T10:18:40;2.78;;;0.60;;
35917;SDS011;22011;59.912;30.300;2023-06-10T10:21:13;1.65;;;0.80;;
35917;SDS011;22011;59.912;30.300;2023-06-10T10:26:15;4.78;;;0.52;;
35917;SDS011;22011;59.912;30.300;2023-06-10T10:28:45;0.60;;;0.57;;
35917;SDS011;22011;59.912;30.300;2023-06-10T10:31:20;0.70;;;0.60;;
35917;SDS011;22011;59.912;30.300;2023-06-10T10:33:51;1.42;;;1.08;;
35917;SDS011;22011;59.912;30.300;2023-06-10T10:36:22;1.02;;;0.68;;
35917;SDS011;22011;59.912;30.300;2023-06-10T10:38:49;9.48;;;0.88;;
35917;SDS011;22011;59.912;30.300;2023-06-10T10:41:18;0.75;;;0.65;;
35917;SDS011;22011;59.912;30.300;2023-06-10T10:43:46;0.85;;;0.68;;
35917;SDS011;22011;59.912;30.300;2023-06-10T10:46:15;2.28;;;0.65;;
35917;SDS011;22011;59.912;30.300;2023-06-10T10:48:45;0.73;;;0.68;;
35917;SDS011;22011;59.912;30.300;2023-06-10T10:51:18;1.23;;;0.55;;
35917;SDS011;22011;59.912;30.300;2023-06-10T10:56:38;0.65;;;0.65;;
35917;SDS011;22011;59.912;30.300;2023-06-10T10:59:06;0.40;;;0.32;;
35917;SDS011;22011;59.912;30.300;2023-06-10T11:01:39;1.38;;;0.85;;
35917;SDS011;22011;59.912;30.300;2023-06-10T11:04:09;2.28;;;0.50;;
35917;SDS011;22011;59.912;30.300;2023-06-10T11:06:37;2.20;;;0.50;;
35917;SDS011;22011;59.912;30.300;2023-06-10T11:11:53;1.42;;;0.68;;
35917;SDS011;22011;59.912;30.300;2023-06-10T11:14:28;6.10;;;0.90;;
35917;SDS011;22011;59.912;30.300;2023-06-10T11:16:56;1.48;;;0.47;;
35917;SDS011;22011;59.912;30.300;2023-06-10T11:19:32;0.63;;;0.40;;
35917;SDS011;22011;59.912;30.300;2023-06-10T11:22:01;5.20;;;0.40;;
35917;SDS011;22011;59.912;30.300;2023-06-10T11:24:30;3.55;;;0.47;;
35917;SDS011;22011;59.912;30.300;2023-06-10T11:30:17;0.55;;;0.40;;
35917;SDS011;22011;59.912;30.300;2023-06-10T11:32:50;2.55;;;0.50;;
35917;SDS011;22011;59.912;30.300;2023-06-10T11:35:20;0.50;;;0.50;;
35917;SDS011;22011;59.912;30.300;2023-06-10T11:37:50;0.43;;;0.40;;
35917;SDS011;22011;59.912;30.300;2023-06-10T11:40:18;1.25;;;0.40;;
35917;SDS011;22011;59.912;30.300;2023-06-10T11:42:46;0.75;;;0.50;;
35917;SDS011;22011;59.912;30.300;2023-06-10T11:45:14;0.85;;;0.60;;
35917;SDS011;22011;59.912;30.300;2023-06-10T11:47:55;0.75;;;0.50;;
35917;SDS011;22011;59.912;30.300;2023-06-10T11:50:31;0.90;;;0.68;;
35917;SDS011;22011;59.912;30.300;2023-06-10T11:52:59;0.60;;;0.50;;
35917;SDS011;22011;59.912;30.300;2023-06-10T11:55:39;0.60;;;0.60;;
35917;SDS011;22011;59.912;30.300;2023-06-10T11:58:11;0.50;;;0.40;;
35917;SDS011;22011;59.912;30.300;2023-06-10T12:00:43;4.20;;;0.60;;
35917;SDS011;22011;59.912;30.300;2023-06-10T12:03:12;0.73;;;0.60;;
35917;SDS011;22011;59.912;30.300;2023-06-10T12:05:41;1.65;;;0.38;;
35917;SDS011;22011;59.912;30.300;2023-06-10T12:08:24;0.57;;;0.38;;
35917;SDS011;22011;59.912;30.300;2023-06-10T12:10:52;0.30;;;0.30;;
35917;SDS011;22011;59.912;30.300;2023-06-10T12:13:20;2.50;;;0.50;;
35917;SDS011;22011;59.912;30.300;2023-06-10T12:15:49;4.13;;;0.50;;
35917;SDS011;22011;59.912;30.300;2023-06-10T12:18:16;2.85;;;0.75;;
35917;SDS011;22011;59.912;30.300;2023-06-10T12:20:46;2.33;;;0.65;;
35917;SDS011;22011;59.912;30.300;2023-06-10T12:23:14;7.32;;;1.15;;
35917;SDS011;22011;59.912;30.300;2023-06-10T12:25:49;0.60;;;0.40;;
35917;SDS011;22011;59.912;30.300;2023-06-10T12:28:20;0.55;;;0.30;;
35917;SDS011;22011;59.912;30.300;2023-06-10T12:30:48;1.80;;;0.60;;
35917;SDS011;22011;59.912;30.300;2023-06-10T12:33:16;3.28;;;0.40;;
35917;SDS011;22011;59.912;30.300;2023-06-10T12:35:48;0.32;;;0.32;;
35917;SDS011;22011;59.912;30.300;2023-06-10T12:38:20;0.60;;;0.40;;
35917;SDS011;22011;59.912;30.300;2023-06-10T12:40:50;2.15;;;0.70;;
35917;SDS011;22011;59.912;30.300;2023-06-10T12:43:21;1.08;;;0.50;;
35917;SDS011;22011;59.912;30.300;2023-06-10T12:45:49;0.90;;;0.50;;
35917;SDS011;22011;59.912;30.300;2023-06-10T12:48:17;0.90;;;0.50;;
35917;SDS011;22011;59.912;30.300;2023-06-10T12:50:49;2.42;;;0.60;;
35917;SDS011;22011;59.912;30.300;2023-06-10T12:53:18;0.50;;;0.45;;
35917;SDS011;22011;59.912;30.300;2023-06-10T12:55:47;1.05;;;0.60;;
35917;SDS011;22011;59.912;30.300;2023-06-10T12:58:14;0.47;;;0.40;;
35917;SDS011;22011;59.912;30.300;2023-06-10T13:00:42;0.47;;;0.40;;
35917;SDS011;22011;59.912;30.300;2023-06-10T13:03:10;0.73;;;0.60;;
35917;SDS011;22011;59.912;30.300;2023-06-10T13:05:37;2.28;;;0.50;;
35917;SDS011;22011;59.912;30.300;2023-06-10T13:08:07;0.63;;;0.32;;
35917;SDS011;22011;59.912;30.300;2023-06-10T13:10:36;0.68;;;0.32;;
35917;SDS011;22011;59.912;30.300;2023-06-10T13:13:03;1.52;;;0.68;;
35917;SDS011;22011;59.912;30.300;2023-06-10T13:15:33;1.27;;;0.50;;
35917;SDS011;22011;59.912;30.300;2023-06-10T13:18:01;2.90;;;0.55;;
35917;SDS011;22011;59.912;30.300;2023-06-10T13:20:29;2.08;;;0.40;;
35917;SDS011;22011;59.912;30.300;2023-06-10T13:22:57;0.57;;;0.30;;
35917;SDS011;22011;59.912;30.300;2023-06-10T13:25:26;0.90;;;0.50;;
35917;SDS011;22011;59.912;30.300;2023-06-10T13:27:53;1.30;;;0.68;;
35917;SDS011;22011;59.912;30.300;2023-06-10T13:30:21;3.40;;;0.70;;
35917;SDS011;22011;59.912;30.300;2023-06-10T13:32:48;0.65;;;0.47;;
35917;SDS011;22011;59.912;30.300;2023-06-10T13:35:16;1.13;;;0.60;;
35917;SDS011;22011;59.912;30.300;2023-06-10T13:37:44;0.57;;;0.57;;
35917;SDS011;22011;59.912;30.300;2023-06-10T13:40:11;1.65;;;0.80;;
35917;SDS011;22011;59.912;30.300;2023-06-10T13:42:40;2.13;;;1.10;;
35917;SDS011;22011;59.912;30.300;2023-06-10T13:45:08;1.27;;;0.90;;
35917;SDS011;22011;59.912;30.300;2023-06-10T13:47:36;0.73;;;0.70;;
35917;SDS011;22011;59.912;30.300;2023-06-10T13:50:04;1.83;;;0.70;;
35917;SDS011;22011;59.912;30.300;2023-06-10T13:52:32;0.80;;;0.77;;
35917;SDS011;22011;59.912;30.300;2023-06-10T13:55:00;0.95;;;0.90;;
35917;SDS011;22011;59.912;30.300;2023-06-10T13:57:27;0.80;;;0.80;;
35917;SDS011;22011;59.912;30.300;2023-06-10T13:59:56;1.30;;;1.20;;
35917;SDS011;22011;59.912;30.300;2023-06-10T14:02:23;1.50;;;1.40;;
35917;SDS011;22011;59.912;30.300;2023-06-10T14:04:51;4.00;;;1.67;;
35917;SDS011;22011;59.912;30.300;2023-06-10T14:07:18;1.50;;;1.40;;
35917;SDS011;22011;59.912;30.300;2023-06-10T14:09:46;6.30;;;1.45;;
35917;SDS011;22011;59.912;30.300;2023-06-10T14:12:13;2.08;;;1.92;;
35917;SDS011;22011;59.912;30.300;2023-06-10T14:14:41;1.88;;;1.52;;
35917;SDS011;22011;59.912;30.300;2023-06-10T14:17:10;1.80;;;1.50;;
35917;SDS011;22011;59.912;30.300;2023-06-10T14:19:37;1.73;;;1.63;;
35917;SDS011;22011;59.912;30.300;2023-06-10T14:22:06;1.77;;;1.52;;
35917;SDS011;22011;59.912;30.300;2023-06-10T14:24:34;2.00;;;1.48;;
35917;SDS011;22011;59.912;30.300;2023-06-10T14:27:02;2.88;;;1.50;;
35917;SDS011;22011;59.912;30.300;2023-06-10T14:29:29;2.13;;;1.73;;
35917;SDS011;22011;59.912;30.300;2023-06-10T14:31:57;1.63;;;1.52;;
35917;SDS011;22011;59.912;30.300;2023-06-10T14:34:26;2.47;;;1.40;;
35917;SDS011;22011;59.912;30.300;2023-06-10T14:36:59;1.60;;;1.50;;
35917;SDS011;22011;59.912;30.300;2023-06-10T14:39:26;1.73;;;1.63;;
35917;SDS011;22011;59.912;30.300;2023-06-10T14:41:54;1.42;;;1.33;;
35917;SDS011;22011;59.912;30.300;2023-06-10T14:44:21;2.25;;;1.70;;
35917;SDS011;22011;59.912;30.300;2023-06-10T14:46:49;2.25;;;1.10;;
35917;SDS011;22011;59.912;30.300;2023-06-10T14:49:16;2.47;;;1.50;;
35917;SDS011;22011;59.912;30.300;2023-06-10T14:51:45;3.28;;;1.50;;
35917;SDS011;22011;59.912;30.300;2023-06-10T14:54:15;2.90;;;1.80;;
35917;SDS011;22011;59.912;30.300;2023-06-10T14:56:43;1.58;;;1.33;;
35917;SDS011;22011;59.912;30.300;2023-06-10T14:59:11;2.13;;;1.58;;
35917;SDS011;22011;59.912;30.300;2023-06-10T15:01:38;1.83;;;1.52;;
35917;SDS011;22011;59.912;30.300;2023-06-10T15:04:06;1.40;;;1.30;;
35917;SDS011;22011;59.912;30.300;2023-06-10T15:06:33;1.33;;;1.20;;